sensor_id;sensor_type;location;lat;lon;timestamp;noise_LAeq;noise_LA_min;noise_LA_max;noise_LA01;noise_LA95
41518;Laerm;27249;48.094;-1.690;2023-12-22T00:01:38;53.11;43.34;63.89;;
41518;Laerm;27249;48.094;-1.690;2023-12-22T00:04:03;54.05;43.34;62.58;;
41518;Laerm;27249;48.094;-1.690;2023-12-22T00:06:31;51.68;45.23;59.91;;
41518;Laerm;27249;48.094;-1.690;2023-12-22T00:08:57;50.27;43.39;60.69;;
41518;Laerm;27249;48.094;-1.690;2023-12-22T00:11:22;54.93;45.23;65.85;;
41518;Laerm;27249;48.094;-1.690;2023-12-22T00:13:47;49.18;42.03;61.53;;
41518;Laerm;27249;48.094;-1.690;2023-12-22T00:16:12;54.13;43.19;68.31;;
41518;Laerm;27249;48.094;-1.690;2023-12-22T00:18:37;50.03;42.71;61.27;;
41518;Laerm;27249;48.094;-1.690;2023-12-22T00:21:03;51.25;43.90;64.82;;
41518;Laerm;27249;48.094;-1.690;2023-12-22T00:23:28;51.83;43.34;64.36;;
41518;Laerm;27249;48.094;-1.690;2023-12-22T00:25:53;50.20;43.39;64.14;;
41518;Laerm;27249;48.094;-1.690;2023-12-22T00:28:18;49.90;43.04;61.95;;
41518;Laerm;27249;48.094;-1.690;2023-12-22T00:30:44;55.80;42.82;70.48;;
41518;Laerm;27249;48.094;-1.690;2023-12-22T00:33:09;52.37;41.89;63.34;;
41518;Laerm;27249;48.094;-1.690;2023-12-22T00:35:34;50.46;42.03;63.22;;
41518;Laerm;27249;48.094;-1.690;2023-12-22T00:38:00;49.56;42.47;61.85;;
41518;Laerm;27249;48.094;-1.690;2023-12-22T00:40:26;52.11;41.89;63.19;;
41518;Laerm;27249;48.094;-1.690;2023-12-22T00:42:51;46.57;42.30;55.64;;
41518;Laerm;27249;48.094;-1.690;2023-12-22T00:45:16;52.51;42.22;65.31;;
41518;Laerm;27249;48.094;-1.690;2023-12-22T00:47:41;53.86;42.03;72.19;;
41518;Laerm;27249;48.094;-1.690;2023-12-22T00:50:08;52.83;43.09;62.30;;
41518;Laerm;27249;48.094;-1.690;2023-12-22T00:52:33;47.49;42.22;66.95;;
41518;Laerm;27249;48.094;-1.690;2023-12-22T00:54:58;50.95;42.29;61.57;;
41518;Laerm;27249;48.094;-1.690;2023-12-22T00:57:24;49.83;42.88;61.14;;
41518;Laerm;27249;48.094;-1.690;2023-12-22T00:59:49;49.39;42.47;61.92;;
41518;Laerm;27249;48.094;-1.690;2023-12-22T01:02:14;48.04;40.98;59.95;;
41518;Laerm;27249;48.094;-1.690;2023-12-22T01:04:40;49.50;41.53;65.31;;
41518;Laerm;27249;48.094;-1.690;2023-12-22T01:07:07;50.03;41.89;63.53;;
41518;Laerm;27249;48.094;-1.690;2023-12-22T01:09:32;50.67;40.62;65.55;;
41518;Laerm;27249;48.094;-1.690;2023-12-22T01:11:57;51.50;42.03;69.91;;
41518;Laerm;27249;48.094;-1.690;2023-12-22T01:14:24;52.36;42.03;65.70;;
41518;Laerm;27249;48.094;-1.690;2023-12-22T01:16:49;48.44;42.65;61.24;;
41518;Laerm;27249;48.094;-1.690;2023-12-22T01:19:14;47.32;42.93;57.04;;
41518;Laerm;27249;48.094;-1.690;2023-12-22T01:21:41;45.58;42.03;60.57;;
41518;Laerm;27249;48.094;-1.690;2023-12-22T01:24:06;48.37;41.06;57.52;;
41518;Laerm;27249;48.094;-1.690;2023-12-22T01:26:32;50.77;41.14;60.91;;
41518;Laerm;27249;48.094;-1.690;2023-12-22T01:28:57;44.79;40.80;51.40;;
41518;Laerm;27249;48.094;-1.690;2023-12-22T01:31:22;44.25;40.43;51.80;;
41518;Laerm;27249;48.094;-1.690;2023-12-22T01:33:47;49.60;41.53;62.64;;
41518;Laerm;27249;48.094;-1.690;2023-12-22T01:36:12;51.30;42.09;63.18;;
41518;Laerm;27249;48.094;-1.690;2023-12-22T01:38:38;47.43;41.38;66.38;;
41518;Laerm;27249;48.094;-1.690;2023-12-22T01:41:03;49.45;41.22;60.72;;
41518;Laerm;27249;48.094;-1.690;2023-12-22T01:43:28;48.89;41.89;59.56;;
41518;Laerm;27249;48.094;-1.690;2023-12-22T01:45:57;44.41;41.46;54.64;;
41518;Laerm;27249;48.094;-1.690;2023-12-22T01:48:23;50.22;42.03;71.76;;
41518;Laerm;27249;48.094;-1.690;2023-12-22T01:50:52;49.67;42.47;60.56;;
41518;Laerm;27249;48.094;-1.690;2023-12-22T01:53:21;51.97;41.61;63.45;;
41518;Laerm;27249;48.094;-1.690;2023-12-22T01:55:48;49.20;40.89;59.27;;
41518;Laerm;27249;48.094;-1.690;2023-12-22T01:58:13;52.47;41.53;65.64;;
41518;Laerm;27249;48.094;-1.690;2023-12-22T02:00:38;53.10;42.71;66.10;;
41518;Laerm;27249;48.094;-1.690;2023-12-22T02:03:03;51.15;42.09;66.07;;
41518;Laerm;27249;48.094;-1.690;2023-12-22T02:05:29;45.20;42.22;50.57;;
41518;Laerm;27249;48.094;-1.690;2023-12-22T02:07:54;48.81;41.53;63.27;;
41518;Laerm;27249;48.094;-1.690;2023-12-22T02:10:20;51.75;41.89;67.95;;
41518;Laerm;27249;48.094;-1.690;2023-12-22T02:12:45;50.40;42.41;63.39;;
41518;Laerm;27249;48.094;-1.690;2023-12-22T02:15:11;54.46;42.42;73.67;;
41518;Laerm;27249;48.094;-1.690;2023-12-22T02:20:01;51.91;42.65;66.80;;
41518;Laerm;27249;48.094;-1.690;2023-12-22T02:22:29;50.11;42.29;61.01;;
41518;Laerm;27249;48.094;-1.690;2023-12-22T02:24:55;48.16;41.68;61.23;;
41518;Laerm;27249;48.094;-1.690;2023-12-22T02:29:49;51.31;41.96;60.80;;
41518;Laerm;27249;48.094;-1.690;2023-12-22T02:32:25;54.43;42.53;68.17;;
41518;Laerm;27249;48.094;-1.690;2023-12-22T02:34:52;46.68;42.29;62.05;;
41518;Laerm;27249;48.094;-1.690;2023-12-22T02:37:18;53.29;40.62;67.68;;
41518;Laerm;27249;48.094;-1.690;2023-12-22T02:39:45;52.49;42.29;66.36;;
41518;Laerm;27249;48.094;-1.690;2023-12-22T02:42:10;50.05;41.75;59.54;;
41518;Laerm;27249;48.094;-1.690;2023-12-22T02:44:37;51.00;43.14;61.80;;
41518;Laerm;27249;48.094;-1.690;2023-12-22T02:47:02;52.87;42.22;68.21;;
41518;Laerm;27249;48.094;-1.690;2023-12-22T02:49:28;45.24;42.47;54.48;;
41518;Laerm;27249;48.094;-1.690;2023-12-22T02:51:53;50.63;42.30;62.65;;
41518;Laerm;27249;48.094;-1.690;2023-12-22T02:54:18;48.97;41.82;67.48;;
41518;Laerm;27249;48.094;-1.690;2023-12-22T02:56:45;49.32;42.59;58.80;;
41518;Laerm;27249;48.094;-1.690;2023-12-22T02:59:10;54.10;43.19;67.32;;
41518;Laerm;27249;48.094;-1.690;2023-12-22T03:01:36;49.65;41.96;67.60;;
41518;Laerm;27249;48.094;-1.690;2023-12-22T03:04:01;48.64;42.16;58.06;;
41518;Laerm;27249;48.094;-1.690;2023-12-22T03:06:26;47.52;42.29;61.16;;
41518;Laerm;27249;48.094;-1.690;2023-12-22T03:08:51;49.49;41.96;64.43;;
41518;Laerm;27249;48.094;-1.690;2023-12-22T03:11:16;48.67;42.88;68.28;;
41518;Laerm;27249;48.094;-1.690;2023-12-22T03:13:42;48.61;43.39;65.28;;
41518;Laerm;27249;48.094;-1.690;2023-12-22T03:16:10;47.21;42.71;65.05;;
41518;Laerm;27249;48.094;-1.690;2023-12-22T03:18:39;49.94;42.76;67.20;;
41518;Laerm;27249;48.094;-1.690;2023-12-22T03:21:04;48.36;41.19;60.43;;
41518;Laerm;27249;48.094;-1.690;2023-12-22T03:23:30;51.49;42.29;63.60;;
41518;Laerm;27249;48.094;-1.690;2023-12-22T03:25:55;51.66;40.62;63.72;;
41518;Laerm;27249;48.094;-1.690;2023-12-22T03:28:20;51.90;42.16;63.09;;
41518;Laerm;27249;48.094;-1.690;2023-12-22T03:30:45;47.34;42.82;61.79;;
41518;Laerm;27249;48.094;-1.690;2023-12-22T03:33:12;51.50;42.65;65.75;;
41518;Laerm;27249;48.094;-1.690;2023-12-22T03:35:37;48.87;42.82;60.38;;
41518;Laerm;27249;48.094;-1.690;2023-12-22T03:38:02;55.49;44.19;66.80;;
41518;Laerm;27249;48.094;-1.690;2023-12-22T03:40:28;53.49;43.14;64.27;;
41518;Laerm;27249;48.094;-1.690;2023-12-22T03:42:54;53.02;43.58;61.77;;
41518;Laerm;27249;48.094;-1.690;2023-12-22T03:45:20;50.90;43.68;65.09;;
41518;Laerm;27249;48.094;-1.690;2023-12-22T03:47:45;50.69;42.93;66.38;;
41518;Laerm;27249;48.094;-1.690;2023-12-22T03:50:10;54.53;42.98;66.98;;
41518;Laerm;27249;48.094;-1.690;2023-12-22T03:52:35;52.61;43.63;66.62;;
41518;Laerm;27249;48.094;-1.690;2023-12-22T03:55:01;54.28;43.29;66.40;;
41518;Laerm;27249;48.094;-1.690;2023-12-22T03:57:26;54.59;43.68;67.13;;
41518;Laerm;27249;48.094;-1.690;2023-12-22T03:59:51;51.04;43.09;68.96;;
41518;Laerm;27249;48.094;-1.690;2023-12-22T04:02:16;51.99;43.24;64.59;;
41518;Laerm;27249;48.094;-1.690;2023-12-22T04:04:42;51.10;43.49;66.57;;
41518;Laerm;27249;48.094;-1.690;2023-12-22T04:07:07;52.89;43.34;74.26;;
41518;Laerm;27249;48.094;-1.690;2023-12-22T04:09:32;50.99;42.65;60.21;;
41518;Laerm;27249;48.094;-1.690;2023-12-22T04:11:58;53.87;43.39;71.30;;
41518;Laerm;27249;48.094;-1.690;2023-12-22T04:14:24;52.72;43.99;64.45;;
41518;Laerm;27249;48.094;-1.690;2023-12-22T04:16:49;48.67;42.93;61.01;;
41518;Laerm;27249;48.094;-1.690;2023-12-22T04:19:15;54.17;41.89;68.68;;
41518;Laerm;27249;48.094;-1.690;2023-12-22T04:21:40;50.65;42.98;58.68;;
41518;Laerm;27249;48.094;-1.690;2023-12-22T04:24:06;54.40;43.49;66.93;;
41518;Laerm;27249;48.094;-1.690;2023-12-22T04:26:31;54.21;43.81;68.12;;
41518;Laerm;27249;48.094;-1.690;2023-12-22T04:28:56;53.29;43.24;65.46;;
41518;Laerm;27249;48.094;-1.690;2023-12-22T04:31:21;53.52;44.51;62.64;;
41518;Laerm;27249;48.094;-1.690;2023-12-22T04:33:46;53.63;44.23;63.75;;
41518;Laerm;27249;48.094;-1.690;2023-12-22T04:36:12;51.73;43.44;62.07;;
41518;Laerm;27249;48.094;-1.690;2023-12-22T04:38:37;49.85;44.19;57.85;;
41518;Laerm;27249;48.094;-1.690;2023-12-22T04:41:02;55.40;44.65;67.27;;
41518;Laerm;27249;48.094;-1.690;2023-12-22T04:43:29;54.13;45.01;65.08;;
41518;Laerm;27249;48.094;-1.690;2023-12-22T04:45:54;55.47;46.97;70.96;;
41518;Laerm;27249;48.094;-1.690;2023-12-22T04:48:19;52.43;44.76;62.98;;
41518;Laerm;27249;48.094;-1.690;2023-12-22T04:50:44;53.58;45.04;64.03;;
41518;Laerm;27249;48.094;-1.690;2023-12-22T04:53:10;54.53;44.47;63.42;;
41518;Laerm;27249;48.094;-1.690;2023-12-22T04:55:35;57.44;45.45;73.92;;
41518;Laerm;27249;48.094;-1.690;2023-12-22T04:58:00;56.22;47.60;63.62;;
41518;Laerm;27249;48.094;-1.690;2023-12-22T05:00:25;56.21;46.13;72.84;;
41518;Laerm;27249;48.094;-1.690;2023-12-22T05:02:51;54.82;45.63;68.47;;
41518;Laerm;27249;48.094;-1.690;2023-12-22T05:05:17;53.09;43.99;64.87;;
41518;Laerm;27249;48.094;-1.690;2023-12-22T05:07:42;52.96;44.73;71.96;;
41518;Laerm;27249;48.094;-1.690;2023-12-22T05:10:07;53.58;45.07;68.65;;
41518;Laerm;27249;48.094;-1.690;2023-12-22T05:12:32;54.38;47.76;61.63;;
41518;Laerm;27249;48.094;-1.690;2023-12-22T05:14:58;57.05;47.28;66.03;;
41518;Laerm;27249;48.094;-1.690;2023-12-22T05:17:23;57.39;46.23;68.54;;
41518;Laerm;27249;48.094;-1.690;2023-12-22T05:19:48;54.93;45.99;66.86;;
41518;Laerm;27249;48.094;-1.690;2023-12-22T05:22:13;53.80;45.17;71.33;;
41518;Laerm;27249;48.094;-1.690;2023-12-22T05:24:38;53.15;45.36;77.24;;
41518;Laerm;27249;48.094;-1.690;2023-12-22T05:27:04;51.03;44.43;75.36;;
41518;Laerm;27249;48.094;-1.690;2023-12-22T05:29:29;54.34;46.33;67.87;;
41518;Laerm;27249;48.094;-1.690;2023-12-22T05:31:54;55.97;46.87;68.86;;
41518;Laerm;27249;48.094;-1.690;2023-12-22T05:34:19;56.56;46.18;70.09;;
41518;Laerm;27249;48.094;-1.690;2023-12-22T05:36:45;53.13;45.48;66.07;;
41518;Laerm;27249;48.094;-1.690;2023-12-22T05:39:10;54.57;46.84;66.92;;
41518;Laerm;27249;48.094;-1.690;2023-12-22T05:41:35;53.92;46.15;61.46;;
41518;Laerm;27249;48.094;-1.690;2023-12-22T05:44:02;54.84;46.33;72.81;;
41518;Laerm;27249;48.094;-1.690;2023-12-22T05:46:28;55.24;45.33;63.90;;
41518;Laerm;27249;48.094;-1.690;2023-12-22T05:48:53;56.45;48.90;66.69;;
41518;Laerm;27249;48.094;-1.690;2023-12-22T05:51:18;55.95;46.45;66.59;;
41518;Laerm;27249;48.094;-1.690;2023-12-22T05:53:44;55.84;49.21;64.18;;
41518;Laerm;27249;48.094;-1.690;2023-12-22T05:56:18;55.30;47.42;66.20;;
41518;Laerm;27249;48.094;-1.690;2023-12-22T05:58:44;55.77;47.22;68.60;;
41518;Laerm;27249;48.094;-1.690;2023-12-22T06:01:14;57.48;46.90;67.79;;
41518;Laerm;27249;48.094;-1.690;2023-12-22T06:03:39;55.03;48.63;62.56;;
41518;Laerm;27249;48.094;-1.690;2023-12-22T06:06:05;58.63;50.34;67.83;;
41518;Laerm;27249;48.094;-1.690;2023-12-22T06:08:30;57.19;49.28;65.25;;
41518;Laerm;27249;48.094;-1.690;2023-12-22T06:10:55;58.42;48.77;69.42;;
41518;Laerm;27249;48.094;-1.690;2023-12-22T06:13:21;56.60;49.33;64.82;;
41518;Laerm;27249;48.094;-1.690;2023-12-22T06:15:46;58.57;52.50;71.81;;
41518;Laerm;27249;48.094;-1.690;2023-12-22T06:18:11;56.89;50.36;63.85;;
41518;Laerm;27249;48.094;-1.690;2023-12-22T06:20:36;60.79;53.30;71.22;;
41518;Laerm;27249;48.094;-1.690;2023-12-22T06:23:01;59.36;50.62;78.87;;
41518;Laerm;27249;48.094;-1.690;2023-12-22T06:25:27;58.89;49.52;75.25;;
41518;Laerm;27249;48.094;-1.690;2023-12-22T06:27:52;59.22;52.16;71.69;;
41518;Laerm;27249;48.094;-1.690;2023-12-22T06:30:17;59.27;51.06;76.37;;
41518;Laerm;27249;48.094;-1.690;2023-12-22T06:32:42;59.76;52.16;80.05;;
41518;Laerm;27249;48.094;-1.690;2023-12-22T06:35:08;60.01;51.64;70.52;;
41518;Laerm;27249;48.094;-1.690;2023-12-22T06:37:34;58.86;50.89;68.85;;
41518;Laerm;27249;48.094;-1.690;2023-12-22T06:40:00;59.44;52.84;67.57;;
41518;Laerm;27249;48.094;-1.690;2023-12-22T06:42:25;59.71;53.82;71.67;;
41518;Laerm;27249;48.094;-1.690;2023-12-22T06:44:50;59.67;52.52;66.46;;
41518;Laerm;27249;48.094;-1.690;2023-12-22T06:47:15;59.92;53.20;66.47;;
41518;Laerm;27249;48.094;-1.690;2023-12-22T06:49:40;60.30;53.26;77.34;;
41518;Laerm;27249;48.094;-1.690;2023-12-22T06:52:06;59.80;52.11;71.24;;
41518;Laerm;27249;48.094;-1.690;2023-12-22T06:54:32;59.13;53.29;72.10;;
41518;Laerm;27249;48.094;-1.690;2023-12-22T06:56:58;60.18;54.01;73.69;;
41518;Laerm;27249;48.094;-1.690;2023-12-22T06:59:24;60.52;53.66;66.30;;
41518;Laerm;27249;48.094;-1.690;2023-12-22T07:01:49;59.61;53.06;67.89;;
41518;Laerm;27249;48.094;-1.690;2023-12-22T07:04:14;59.12;54.22;66.04;;
41518;Laerm;27249;48.094;-1.690;2023-12-22T07:06:39;60.28;52.54;73.68;;
41518;Laerm;27249;48.094;-1.690;2023-12-22T07:11:40;59.10;54.17;69.66;;
41518;Laerm;27249;48.094;-1.690;2023-12-22T07:14:05;58.75;50.89;67.97;;
41518;Laerm;27249;48.094;-1.690;2023-12-22T07:16:31;59.58;52.92;64.68;;
41518;Laerm;27249;48.094;-1.690;2023-12-22T07:18:56;59.75;53.17;68.10;;
41518;Laerm;27249;48.094;-1.690;2023-12-22T07:21:21;59.21;54.32;66.56;;
41518;Laerm;27249;48.094;-1.690;2023-12-22T07:23:47;59.81;53.64;67.71;;
41518;Laerm;27249;48.094;-1.690;2023-12-22T07:26:12;58.83;53.77;69.28;;
41518;Laerm;27249;48.094;-1.690;2023-12-22T07:28:37;59.42;55.09;65.61;;
41518;Laerm;27249;48.094;-1.690;2023-12-22T07:31:03;61.08;56.16;68.62;;
41518;Laerm;27249;48.094;-1.690;2023-12-22T07:33:28;60.93;56.18;67.48;;
41518;Laerm;27249;48.094;-1.690;2023-12-22T07:35:53;59.92;54.68;69.21;;
41518;Laerm;27249;48.094;-1.690;2023-12-22T07:38:18;61.12;55.36;68.96;;
41518;Laerm;27249;48.094;-1.690;2023-12-22T07:40:44;60.69;53.99;68.57;;
41518;Laerm;27249;48.094;-1.690;2023-12-22T07:43:09;60.59;54.26;66.44;;
41518;Laerm;27249;48.094;-1.690;2023-12-22T07:45:34;60.46;53.95;67.76;;
41518;Laerm;27249;48.094;-1.690;2023-12-22T07:47:59;60.01;55.87;69.55;;
41518;Laerm;27249;48.094;-1.690;2023-12-22T07:50:24;60.78;55.64;72.32;;
41518;Laerm;27249;48.094;-1.690;2023-12-22T07:52:50;60.80;53.82;73.19;;
41518;Laerm;27249;48.094;-1.690;2023-12-22T07:55:15;61.04;52.68;80.98;;
41518;Laerm;27249;48.094;-1.690;2023-12-22T07:57:41;59.19;52.22;69.76;;
41518;Laerm;27249;48.094;-1.690;2023-12-22T08:00:06;60.22;55.65;72.44;;
41518;Laerm;27249;48.094;-1.690;2023-12-22T08:02:34;59.88;51.62;66.85;;
41518;Laerm;27249;48.094;-1.690;2023-12-22T08:04:59;59.80;54.44;65.93;;
41518;Laerm;27249;48.094;-1.690;2023-12-22T08:07:24;60.77;54.52;67.07;;
41518;Laerm;27249;48.094;-1.690;2023-12-22T08:09:50;59.35;52.89;67.02;;
41518;Laerm;27249;48.094;-1.690;2023-12-22T08:12:15;58.65;51.45;65.70;;
41518;Laerm;27249;48.094;-1.690;2023-12-22T08:14:40;59.42;52.53;66.74;;
41518;Laerm;27249;48.094;-1.690;2023-12-22T08:17:05;60.01;52.52;72.92;;
41518;Laerm;27249;48.094;-1.690;2023-12-22T08:19:31;60.20;54.24;77.07;;
41518;Laerm;27249;48.094;-1.690;2023-12-22T08:21:56;58.90;53.28;67.09;;
41518;Laerm;27249;48.094;-1.690;2023-12-22T08:24:21;59.52;54.77;66.00;;
41518;Laerm;27249;48.094;-1.690;2023-12-22T08:26:47;60.85;55.06;73.56;;
41518;Laerm;27249;48.094;-1.690;2023-12-22T08:29:13;60.30;54.07;70.75;;
41518;Laerm;27249;48.094;-1.690;2023-12-22T08:31:38;59.37;53.81;68.94;;
41518;Laerm;27249;48.094;-1.690;2023-12-22T08:34:03;59.38;52.50;68.16;;
41518;Laerm;27249;48.094;-1.690;2023-12-22T08:36:28;60.33;53.38;69.07;;
41518;Laerm;27249;48.094;-1.690;2023-12-22T08:38:54;59.37;52.56;65.37;;
41518;Laerm;27249;48.094;-1.690;2023-12-22T08:41:19;59.59;52.58;71.15;;
41518;Laerm;27249;48.094;-1.690;2023-12-22T08:43:44;59.67;53.97;65.51;;
41518;Laerm;27249;48.094;-1.690;2023-12-22T08:46:10;59.48;53.87;68.77;;
41518;Laerm;27249;48.094;-1.690;2023-12-22T08:48:39;58.23;51.56;66.95;;
41518;Laerm;27249;48.094;-1.690;2023-12-22T08:51:04;59.55;52.70;74.15;;
41518;Laerm;27249;48.094;-1.690;2023-12-22T08:53:30;58.97;52.74;64.74;;
41518;Laerm;27249;48.094;-1.690;2023-12-22T08:55:59;58.25;52.32;67.18;;
41518;Laerm;27249;48.094;-1.690;2023-12-22T08:58:24;59.01;51.91;65.11;;
41518;Laerm;27249;48.094;-1.690;2023-12-22T09:00:49;59.79;54.37;73.23;;
41518;Laerm;27249;48.094;-1.690;2023-12-22T09:03:14;59.42;53.03;77.55;;
41518;Laerm;27249;48.094;-1.690;2023-12-22T09:05:39;60.05;53.94;70.14;;
41518;Laerm;27249;48.094;-1.690;2023-12-22T09:08:05;58.50;52.71;64.39;;
41518;Laerm;27249;48.094;-1.690;2023-12-22T09:10:30;59.95;53.64;69.10;;
41518;Laerm;27249;48.094;-1.690;2023-12-22T09:12:57;59.22;54.56;65.09;;
41518;Laerm;27249;48.094;-1.690;2023-12-22T09:15:22;59.87;53.87;71.75;;
41518;Laerm;27249;48.094;-1.690;2023-12-22T09:17:47;59.25;51.42;76.13;;
41518;Laerm;27249;48.094;-1.690;2023-12-22T09:20:12;58.89;52.31;72.16;;
41518;Laerm;27249;48.094;-1.690;2023-12-22T09:22:38;59.53;53.25;76.22;;
41518;Laerm;27249;48.094;-1.690;2023-12-22T09:25:03;59.48;54.01;74.84;;
41518;Laerm;27249;48.094;-1.690;2023-12-22T09:27:28;69.47;53.54;85.03;;
41518;Laerm;27249;48.094;-1.690;2023-12-22T09:29:56;59.51;53.81;70.54;;
41518;Laerm;27249;48.094;-1.690;2023-12-22T09:32:21;60.54;53.00;81.29;;
41518;Laerm;27249;48.094;-1.690;2023-12-22T09:34:46;59.67;54.92;67.21;;
41518;Laerm;27249;48.094;-1.690;2023-12-22T09:37:11;57.83;51.90;63.39;;
41518;Laerm;27249;48.094;-1.690;2023-12-22T09:39:36;58.85;52.76;67.54;;
41518;Laerm;27249;48.094;-1.690;2023-12-22T09:42:02;57.47;50.61;67.10;;
41518;Laerm;27249;48.094;-1.690;2023-12-22T09:44:27;59.27;50.92;71.47;;
41518;Laerm;27249;48.094;-1.690;2023-12-22T09:46:55;58.66;53.34;69.84;;
41518;Laerm;27249;48.094;-1.690;2023-12-22T09:49:22;58.80;53.86;66.94;;
41518;Laerm;27249;48.094;-1.690;2023-12-22T09:51:47;59.58;54.01;71.64;;
41518;Laerm;27249;48.094;-1.690;2023-12-22T09:54:14;59.36;52.00;74.82;;
41518;Laerm;27249;48.094;-1.690;2023-12-22T09:56:40;58.94;53.47;70.37;;
41518;Laerm;27249;48.094;-1.690;2023-12-22T09:59:10;58.66;52.56;74.54;;
41518;Laerm;27249;48.094;-1.690;2023-12-22T10:01:37;58.66;52.94;66.08;;
41518;Laerm;27249;48.094;-1.690;2023-12-22T10:04:03;58.49;53.10;66.49;;
41518;Laerm;27249;48.094;-1.690;2023-12-22T10:06:28;58.74;53.81;64.90;;
41518;Laerm;27249;48.094;-1.690;2023-12-22T10:08:54;58.54;53.14;63.72;;
41518;Laerm;27249;48.094;-1.690;2023-12-22T10:11:19;58.22;53.65;70.28;;
41518;Laerm;27249;48.094;-1.690;2023-12-22T10:13:45;58.34;52.41;67.20;;
41518;Laerm;27249;48.094;-1.690;2023-12-22T10:16:11;58.36;53.61;68.06;;
41518;Laerm;27249;48.094;-1.690;2023-12-22T10:18:37;58.48;52.68;73.61;;
41518;Laerm;27249;48.094;-1.690;2023-12-22T10:21:02;58.56;51.73;67.85;;
41518;Laerm;27249;48.094;-1.690;2023-12-22T10:23:27;57.94;50.73;65.38;;
41518;Laerm;27249;48.094;-1.690;2023-12-22T10:25:52;59.52;52.09;72.71;;
41518;Laerm;27249;48.094;-1.690;2023-12-22T10:28:18;58.28;51.44;70.55;;
41518;Laerm;27249;48.094;-1.690;2023-12-22T10:30:46;58.18;51.07;69.02;;
41518;Laerm;27249;48.094;-1.690;2023-12-22T10:33:12;58.00;53.71;63.35;;
41518;Laerm;27249;48.094;-1.690;2023-12-22T10:35:38;57.89;53.24;68.70;;
41518;Laerm;27249;48.094;-1.690;2023-12-22T10:38:03;57.88;52.82;63.95;;
41518;Laerm;27249;48.094;-1.690;2023-12-22T10:40:29;58.09;52.77;64.14;;
41518;Laerm;27249;48.094;-1.690;2023-12-22T10:42:54;58.51;53.04;73.33;;
41518;Laerm;27249;48.094;-1.690;2023-12-22T10:45:20;58.39;51.95;68.43;;
41518;Laerm;27249;48.094;-1.690;2023-12-22T10:47:45;58.06;52.56;71.42;;
41518;Laerm;27249;48.094;-1.690;2023-12-22T10:50:14;57.20;51.44;65.99;;
41518;Laerm;27249;48.094;-1.690;2023-12-22T10:52:39;58.65;52.37;64.91;;
41518;Laerm;27249;48.094;-1.690;2023-12-22T10:55:04;60.01;53.53;78.87;;
41518;Laerm;27249;48.094;-1.690;2023-12-22T10:57:31;58.51;52.28;74.30;;
41518;Laerm;27249;48.094;-1.690;2023-12-22T11:00:02;58.64;50.81;78.69;;
41518;Laerm;27249;48.094;-1.690;2023-12-22T11:02:29;59.81;53.70;77.85;;
41518;Laerm;27249;48.094;-1.690;2023-12-22T11:04:57;58.43;52.09;65.86;;
41518;Laerm;27249;48.094;-1.690;2023-12-22T11:07:25;58.15;53.05;65.13;;
41518;Laerm;27249;48.094;-1.690;2023-12-22T11:09:53;60.35;54.29;73.30;;
41518;Laerm;27249;48.094;-1.690;2023-12-22T11:12:20;58.05;52.57;67.84;;
41518;Laerm;27249;48.094;-1.690;2023-12-22T11:14:46;56.84;52.05;64.89;;
41518;Laerm;27249;48.094;-1.690;2023-12-22T11:17:16;56.91;52.40;71.06;;
41518;Laerm;27249;48.094;-1.690;2023-12-22T11:19:43;59.84;52.29;82.01;;
41518;Laerm;27249;48.094;-1.690;2023-12-22T11:22:08;57.30;51.79;63.08;;
41518;Laerm;27249;48.094;-1.690;2023-12-22T11:24:34;58.01;52.21;66.66;;
41518;Laerm;27249;48.094;-1.690;2023-12-22T11:27:00;65.24;54.16;86.37;;
41518;Laerm;27249;48.094;-1.690;2023-12-22T11:29:26;58.33;53.54;68.31;;
41518;Laerm;27249;48.094;-1.690;2023-12-22T11:31:52;57.86;53.64;68.64;;
41518;Laerm;27249;48.094;-1.690;2023-12-22T11:34:20;60.78;53.49;78.78;;
41518;Laerm;27249;48.094;-1.690;2023-12-22T11:36:46;60.59;52.86;76.89;;
41518;Laerm;27249;48.094;-1.690;2023-12-22T11:39:12;58.31;50.26;70.90;;
41518;Laerm;27249;48.094;-1.690;2023-12-22T11:41:37;58.54;53.51;73.64;;
41518;Laerm;27249;48.094;-1.690;2023-12-22T11:44:04;60.01;53.66;75.52;;
41518;Laerm;27249;48.094;-1.690;2023-12-22T11:46:30;57.91;53.63;65.50;;
41518;Laerm;27249;48.094;-1.690;2023-12-22T11:48:55;58.55;51.82;76.06;;
41518;Laerm;27249;48.094;-1.690;2023-12-22T11:51:21;57.84;53.49;68.61;;
41518;Laerm;27249;48.094;-1.690;2023-12-22T11:53:46;57.91;52.54;65.36;;
41518;Laerm;27249;48.094;-1.690;2023-12-22T11:56:12;58.51;52.12;70.02;;
41518;Laerm;27249;48.094;-1.690;2023-12-22T11:58:39;57.77;52.08;72.02;;
41518;Laerm;27249;48.094;-1.690;2023-12-22T12:01:05;58.09;51.30;69.63;;
41518;Laerm;27249;48.094;-1.690;2023-12-22T12:03:31;57.70;51.64;63.45;;
41518;Laerm;27249;48.094;-1.690;2023-12-22T12:08:41;58.19;51.80;68.96;;
41518;Laerm;27249;48.094;-1.690;2023-12-22T12:11:07;57.47;52.66;65.72;;
41518;Laerm;27249;48.094;-1.690;2023-12-22T12:13:33;57.56;51.49;66.22;;
41518;Laerm;27249;48.094;-1.690;2023-12-22T12:15:59;57.95;51.78;72.15;;
41518;Laerm;27249;48.094;-1.690;2023-12-22T12:18:29;60.89;51.95;78.19;;
41518;Laerm;27249;48.094;-1.690;2023-12-22T12:20:55;62.42;53.81;84.53;;
41518;Laerm;27249;48.094;-1.690;2023-12-22T12:23:23;60.45;52.10;80.95;;
41518;Laerm;27249;48.094;-1.690;2023-12-22T12:25:48;58.76;53.38;74.19;;
41518;Laerm;27249;48.094;-1.690;2023-12-22T12:28:14;58.75;53.74;69.43;;
41518;Laerm;27249;48.094;-1.690;2023-12-22T12:30:43;60.29;51.81;74.80;;
41518;Laerm;27249;48.094;-1.690;2023-12-22T12:33:08;58.24;52.56;67.79;;
41518;Laerm;27249;48.094;-1.690;2023-12-22T12:35:34;58.60;51.27;79.11;;
41518;Laerm;27249;48.094;-1.690;2023-12-22T12:38:00;56.46;50.22;65.82;;
41518;Laerm;27249;48.094;-1.690;2023-12-22T12:40:26;59.39;53.63;73.84;;
41518;Laerm;27249;48.094;-1.690;2023-12-22T12:42:54;57.79;52.41;66.21;;
41518;Laerm;27249;48.094;-1.690;2023-12-22T12:45:22;58.08;52.85;77.24;;
41518;Laerm;27249;48.094;-1.690;2023-12-22T12:47:55;58.85;51.02;72.55;;
41518;Laerm;27249;48.094;-1.690;2023-12-22T12:50:22;58.19;53.02;65.54;;
41518;Laerm;27249;48.094;-1.690;2023-12-22T12:52:48;59.43;52.75;76.84;;
41518;Laerm;27249;48.094;-1.690;2023-12-22T12:55:16;57.32;51.17;69.31;;
41518;Laerm;27249;48.094;-1.690;2023-12-22T12:57:41;57.23;52.43;63.25;;
41518;Laerm;27249;48.094;-1.690;2023-12-22T13:00:07;58.49;53.16;65.01;;
41518;Laerm;27249;48.094;-1.690;2023-12-22T13:02:33;58.85;52.86;63.94;;
41518;Laerm;27249;48.094;-1.690;2023-12-22T13:05:00;58.56;52.54;64.07;;
41518;Laerm;27249;48.094;-1.690;2023-12-22T13:07:29;56.82;49.21;65.61;;
41518;Laerm;27249;48.094;-1.690;2023-12-22T13:09:54;58.28;51.12;63.38;;
41518;Laerm;27249;48.094;-1.690;2023-12-22T13:12:22;57.80;52.51;64.40;;
41518;Laerm;27249;48.094;-1.690;2023-12-22T13:14:47;57.53;50.00;63.82;;
41518;Laerm;27249;48.094;-1.690;2023-12-22T13:17:13;57.78;50.01;62.50;;
41518;Laerm;27249;48.094;-1.690;2023-12-22T13:19:38;57.62;51.29;65.66;;
41518;Laerm;27249;48.094;-1.690;2023-12-22T13:22:04;57.49;51.44;62.36;;
41518;Laerm;27249;48.094;-1.690;2023-12-22T13:24:29;58.27;52.16;66.48;;
41518;Laerm;27249;48.094;-1.690;2023-12-22T13:26:58;57.33;51.97;62.42;;
41518;Laerm;27249;48.094;-1.690;2023-12-22T13:29:25;57.35;51.02;66.15;;
41518;Laerm;27249;48.094;-1.690;2023-12-22T13:31:51;57.50;50.68;65.49;;
41518;Laerm;27249;48.094;-1.690;2023-12-22T13:34:16;58.07;49.87;74.70;;